createdAt,value
2018-03-31T00:01:36.640Z,7.10
2018-03-31T00:04:03.635Z,7.10
2018-03-31T00:06:31.404Z,7.20
2018-03-31T00:08:59.169Z,7.20
2018-03-31T00:11:26.937Z,7.20
2018-03-31T00:13:54.725Z,7.10
2018-03-31T00:16:21.736Z,7.10
2018-03-31T00:18:49.599Z,7.20
2018-03-31T00:21:17.359Z,7.20
2018-03-31T00:23:45.155Z,7.30
2018-03-31T00:26:12.138Z,7.30
2018-03-31T00:28:39.145Z,7.20
2018-03-31T00:31:06.155Z,7.20
2018-03-31T00:33:33.916Z,7.20
2018-03-31T00:36:01.706Z,7.20
2018-03-31T00:38:28.701Z,7.20
2018-03-31T00:40:55.726Z,7.30
2018-03-31T00:43:22.737Z,7.20
2018-03-31T00:45:49.723Z,7.20
2018-03-31T00:48:16.819Z,7.20
2018-03-31T00:50:44.580Z,7.00
2018-03-31T00:53:12.347Z,6.90
2018-03-31T00:55:40.111Z,6.90
2018-03-31T00:58:07.125Z,6.80
2018-03-31T01:00:34.201Z,6.90
2018-03-31T01:03:01.215Z,6.90
2018-03-31T01:05:28.288Z,6.90
2018-03-31T01:07:56.064Z,6.80
2018-03-31T01:10:23.078Z,6.70
2018-03-31T01:12:50.080Z,6.80
2018-03-31T01:15:17.106Z,6.90
2018-03-31T01:17:44.132Z,6.90
2018-03-31T01:20:11.901Z,6.90
2018-03-31T01:22:38.909Z,6.80
2018-03-31T01:25:05.912Z,7.00
2018-03-31T01:27:32.968Z,6.90
2018-03-31T01:29:59.983Z,6.90
2018-03-31T01:32:26.989Z,6.90
2018-03-31T01:34:53.989Z,6.80
2018-03-31T01:37:20.994Z,6.80
2018-03-31T01:39:48.776Z,6.90
2018-03-31T01:42:15.798Z,6.80
2018-03-31T01:44:42.786Z,6.80
2018-03-31T01:47:09.788Z,6.80
2018-03-31T01:49:36.794Z,6.80
2018-03-31T01:52:03.805Z,6.80
2018-03-31T01:54:30.828Z,6.90
2018-03-31T01:56:58.591Z,6.90
2018-03-31T01:59:26.364Z,6.70
2018-03-31T02:01:54.148Z,6.70
2018-03-31T02:04:21.286Z,6.60
2018-03-31T02:06:48.289Z,6.60
2018-03-31T02:09:15.381Z,6.70
2018-03-31T02:11:42.402Z,6.60
2018-03-31T02:14:10.180Z,6.60
2018-03-31T02:16:38.047Z,6.60
2018-03-31T02:19:05.926Z,6.70
2018-03-31T02:21:32.964Z,6.60
2018-03-31T02:23:59.967Z,6.80
2018-03-31T02:26:27.756Z,6.70
2018-03-31T02:28:55.526Z,6.70
2018-03-31T02:31:23.293Z,6.70
2018-03-31T02:33:50.314Z,6.60
2018-03-31T02:36:17.313Z,6.70
2018-03-31T02:38:44.349Z,6.70
2018-03-31T02:41:11.358Z,6.70
2018-03-31T02:43:39.120Z,6.80
2018-03-31T02:46:07.020Z,6.80
2018-03-31T02:48:34.031Z,6.70
2018-03-31T02:51:01.792Z,6.50
2018-03-31T02:53:29.563Z,6.60
2018-03-31T02:55:57.321Z,6.50
2018-03-31T02:58:25.095Z,6.50
2018-03-31T03:00:52.870Z,6.50
2018-03-31T03:03:19.866Z,6.50
2018-03-31T03:05:46.882Z,6.50
2018-03-31T03:08:13.885Z,6.50
2018-03-31T03:10:41.664Z,6.60
2018-03-31T03:13:08.664Z,6.50
2018-03-31T03:15:35.647Z,6.60
2018-03-31T03:18:03.416Z,6.60
2018-03-31T03:20:30.461Z,6.60
2018-03-31T03:22:57.478Z,6.50
2018-03-31T03:25:24.485Z,6.40
2018-03-31T03:27:51.498Z,6.40
2018-03-31T03:30:18.493Z,6.30
2018-03-31T03:32:45.587Z,6.40
2018-03-31T03:35:12.598Z,6.40
2018-03-31T03:37:39.605Z,6.40
2018-03-31T03:40:06.615Z,6.40
2018-03-31T03:42:34.367Z,6.40
2018-03-31T03:45:02.149Z,6.40
2018-03-31T03:47:29.158Z,6.30
2018-03-31T03:49:56.258Z,6.40
2018-03-31T03:52:23.374Z,6.50
2018-03-31T03:54:51.131Z,6.50
2018-03-31T03:57:18.136Z,6.40
2018-03-31T03:59:45.439Z,6.40
2018-03-31T04:02:13.254Z,6.40
2018-03-31T04:04:40.261Z,6.30
2018-03-31T04:07:07.244Z,6.40
2018-03-31T04:09:34.267Z,6.40
2018-03-31T04:12:01.263Z,6.40
2018-03-31T04:14:28.269Z,6.40
2018-03-31T04:16:55.269Z,6.40
2018-03-31T04:19:23.028Z,6.60
2018-03-31T04:21:50.795Z,6.50
2018-03-31T04:24:18.564Z,6.50
2018-03-31T04:26:45.573Z,6.40
2018-03-31T04:29:13.327Z,6.30
2018-03-31T04:31:40.422Z,6.20
2018-03-31T04:34:07.416Z,6.30
2018-03-31T04:36:34.516Z,6.30
2018-03-31T04:39:01.550Z,6.20
2018-03-31T04:41:29.314Z,6.20
2018-03-31T04:43:57.079Z,6.20
2018-03-31T04:46:24.835Z,6.20
2018-03-31T04:48:52.595Z,6.10
2018-03-31T04:51:20.361Z,6.10
2018-03-31T04:53:48.123Z,5.90
2018-03-31T04:56:15.883Z,6.00
2018-03-31T04:58:43.653Z,6.10
2018-03-31T05:01:10.654Z,6.00
2018-03-31T05:03:37.674Z,6.00
2018-03-31T05:06:04.677Z,6.00
2018-03-31T05:08:32.441Z,6.00
2018-03-31T05:11:00.211Z,6.00
2018-03-31T05:13:27.975Z,6.10
2018-03-31T05:15:55.761Z,6.10
2018-03-31T05:18:22.780Z,6.10
2018-03-31T05:20:50.653Z,6.00
2018-03-31T05:23:17.701Z,6.00
2018-03-31T05:25:44.743Z,5.80
2018-03-31T05:28:12.527Z,5.70
2018-03-31T05:30:39.530Z,5.60
2018-03-31T05:33:07.292Z,5.70
2018-03-31T05:35:34.291Z,5.60
2018-03-31T05:38:01.292Z,5.70
2018-03-31T05:40:28.308Z,5.70
2018-03-31T05:42:55.315Z,5.70
2018-03-31T05:45:22.338Z,5.80
2018-03-31T05:47:50.112Z,5.80
2018-03-31T05:50:18.159Z,5.80
2018-03-31T05:52:46.038Z,5.60
2018-03-31T05:55:13.810Z,5.60
2018-03-31T05:57:40.810Z,5.60
2018-03-31T06:00:07.895Z,5.40
2018-03-31T06:02:34.938Z,5.30
2018-03-31T06:05:01.964Z,5.40
2018-03-31T06:07:29.737Z,5.50
2018-03-31T06:09:57.521Z,5.50
2018-03-31T06:12:24.530Z,5.50
2018-03-31T06:14:51.603Z,5.50
2018-03-31T06:17:18.605Z,5.50
2018-03-31T06:19:45.587Z,5.50
2018-03-31T06:22:13.347Z,5.40
2018-03-31T06:24:41.114Z,5.70
2018-03-31T06:27:08.180Z,5.60
2018-03-31T06:29:35.180Z,5.60
2018-03-31T06:32:02.301Z,5.50
2018-03-31T06:34:29.295Z,5.50
2018-03-31T06:36:57.061Z,5.50
2018-03-31T06:39:24.835Z,5.50
2018-03-31T06:41:51.846Z,5.50
2018-03-31T06:44:19.639Z,5.50
2018-03-31T06:46:46.714Z,5.50
2018-03-31T06:49:13.710Z,5.70
2018-03-31T06:51:41.475Z,6.20
2018-03-31T06:54:09.245Z,6.20
2018-03-31T06:56:37.032Z,6.00
2018-03-31T06:59:04.082Z,6.00
2018-03-31T07:01:31.088Z,6.00
2018-03-31T07:03:58.873Z,5.90
2018-03-31T07:06:25.950Z,5.80
2018-03-31T07:08:52.976Z,5.90
2018-03-31T07:11:19.962Z,6.00
2018-03-31T07:13:46.969Z,5.90
2018-03-31T07:16:14.093Z,5.90
2018-03-31T07:18:41.121Z,5.80
2018-03-31T07:21:09.003Z,6.00
2018-03-31T07:23:36.773Z,6.00
2018-03-31T07:26:03.822Z,5.90
2018-03-31T07:28:30.855Z,6.00
2018-03-31T07:30:58.611Z,6.10
2018-03-31T07:33:26.502Z,6.00
2018-03-31T07:35:53.497Z,5.90
2018-03-31T07:38:20.515Z,5.90
2018-03-31T07:40:47.548Z,5.90
2018-03-31T07:43:14.526Z,6.00
2018-03-31T07:45:41.617Z,6.00
2018-03-31T07:48:08.627Z,6.10
2018-03-31T07:50:35.669Z,6.20
2018-03-31T07:53:02.670Z,6.30
2018-03-31T07:55:29.675Z,6.40
2018-03-31T07:57:57.448Z,6.60
2018-03-31T08:00:25.242Z,6.70
2018-03-31T08:02:52.697Z,6.60
2018-03-31T08:05:19.864Z,6.80
2018-03-31T08:07:46.973Z,6.90
2018-03-31T08:10:13.960Z,7.00
2018-03-31T08:12:40.976Z,7.00
2018-03-31T08:15:07.992Z,7.00
2018-03-31T08:17:35.771Z,7.10
2018-03-31T08:20:02.780Z,7.00
2018-03-31T08:22:30.570Z,7.10
2018-03-31T08:24:58.324Z,7.40
2018-03-31T08:27:26.092Z,7.80
2018-03-31T08:29:53.848Z,7.90
2018-03-31T08:32:21.637Z,8.00
2018-03-31T08:34:48.682Z,7.90
2018-03-31T08:37:15.678Z,8.10
2018-03-31T08:39:42.682Z,8.10
2018-03-31T08:42:09.673Z,8.00
2018-03-31T08:44:36.753Z,7.90
2018-03-31T08:47:03.766Z,7.80
2018-03-31T08:49:30.772Z,7.70
2018-03-31T08:51:57.771Z,7.60
2018-03-31T08:54:25.682Z,7.40
2018-03-31T08:56:52.684Z,7.40
2018-03-31T08:59:20.470Z,7.60
2018-03-31T09:01:48.229Z,7.50
2018-03-31T09:04:15.234Z,7.50
2018-03-31T09:06:42.226Z,7.50
2018-03-31T09:09:09.421Z,7.60
2018-03-31T09:11:37.128Z,7.80
2018-03-31T09:14:04.172Z,7.70
2018-03-31T09:16:31.259Z,7.80
2018-03-31T09:18:58.269Z,7.70
2018-03-31T09:21:25.276Z,7.70
2018-03-31T09:23:52.320Z,7.80
2018-03-31T09:26:19.401Z,7.80
2018-03-31T09:28:46.428Z,7.60
2018-03-31T09:31:14.265Z,7.70
2018-03-31T09:33:41.315Z,7.60
2018-03-31T09:36:08.430Z,7.80
2018-03-31T09:38:35.446Z,7.90
2018-03-31T09:41:02.443Z,8.10
2018-03-31T09:43:29.539Z,8.10
2018-03-31T09:45:56.575Z,8.20
2018-03-31T09:48:24.357Z,8.20
2018-03-31T09:50:51.415Z,8.20
2018-03-31T09:53:18.417Z,8.40
2018-03-31T09:55:45.505Z,8.30
2018-03-31T09:58:12.511Z,8.40
2018-03-31T10:00:40.288Z,8.30
2018-03-31T10:03:08.065Z,8.20
2018-03-31T10:05:35.101Z,8.10
2018-03-31T10:08:02.893Z,8.10
2018-03-31T10:10:29.884Z,8.00
2018-03-31T10:12:57.767Z,8.00
2018-03-31T10:15:25.539Z,8.00
2018-03-31T10:17:52.540Z,8.00
2018-03-31T10:20:19.619Z,8.10
2018-03-31T10:22:47.369Z,8.10
2018-03-31T10:25:14.397Z,8.10
2018-03-31T10:27:41.503Z,8.20
2018-03-31T10:30:08.524Z,8.20
2018-03-31T10:32:36.289Z,8.40
2018-03-31T10:35:04.061Z,8.30
2018-03-31T10:37:31.080Z,8.30
2018-03-31T10:39:58.869Z,8.30
2018-03-31T10:42:25.864Z,8.20
2018-03-31T10:44:52.861Z,8.20
2018-03-31T10:47:19.898Z,8.30
2018-03-31T10:49:47.242Z,8.40
2018-03-31T10:52:14.262Z,8.50
2018-03-31T10:54:41.280Z,8.60
2018-03-31T10:57:08.390Z,8.60
2018-03-31T10:59:35.438Z,8.80
2018-03-31T11:02:02.427Z,8.80
2018-03-31T11:04:29.450Z,9.00
2018-03-31T11:06:57.308Z,9.30
2018-03-31T11:09:24.329Z,9.30
2018-03-31T11:11:52.092Z,9.40
2018-03-31T11:14:19.879Z,9.10
2018-03-31T11:16:46.899Z,9.10
2018-03-31T11:19:14.672Z,8.80
2018-03-31T11:21:41.681Z,8.80
2018-03-31T11:24:08.752Z,9.00
2018-03-31T11:26:36.542Z,9.40
2018-03-31T11:29:03.589Z,9.40
2018-03-31T11:31:30.588Z,9.60
2018-03-31T11:33:57.736Z,9.70
2018-03-31T11:36:24.745Z,9.50
2018-03-31T11:38:51.765Z,9.60
2018-03-31T11:41:18.753Z,9.50
2018-03-31T11:43:45.852Z,9.60
2018-03-31T11:46:12.843Z,9.70
2018-03-31T11:48:39.945Z,9.60
2018-03-31T11:51:06.931Z,9.60
2018-03-31T11:53:33.917Z,9.60
2018-03-31T11:56:01.680Z,9.70
2018-03-31T11:58:29.531Z,9.80
2018-03-31T12:00:57.381Z,9.90
2018-03-31T12:03:24.351Z,9.90
2018-03-31T12:05:52.109Z,10.50
2018-03-31T12:08:19.876Z,10.60
2018-03-31T12:10:47.651Z,10.70
2018-03-31T12:13:14.669Z,10.70
2018-03-31T12:15:41.743Z,10.70
2018-03-31T12:18:08.760Z,10.80
2018-03-31T12:20:35.770Z,10.60
2018-03-31T12:23:02.905Z,10.40
2018-03-31T12:25:29.916Z,10.40
2018-03-31T12:27:57.808Z,10.20
2018-03-31T12:30:24.811Z,10.20
2018-03-31T12:32:52.575Z,10.30
2018-03-31T12:35:20.455Z,10.20
2018-03-31T12:37:48.230Z,10.10
2018-03-31T12:40:15.278Z,10.10
2018-03-31T12:42:42.299Z,10.10
2018-03-31T12:45:10.074Z,9.90
2018-03-31T12:47:37.996Z,10.00
2018-03-31T12:50:05.203Z,10.00
2018-03-31T12:52:32.209Z,10.00
2018-03-31T12:54:59.251Z,10.20
2018-03-31T12:57:26.257Z,10.10
2018-03-31T12:59:53.251Z,10.00
2018-03-31T13:02:21.159Z,10.50
2018-03-31T13:04:48.361Z,10.40
2018-03-31T13:07:15.358Z,10.50
2018-03-31T13:09:42.389Z,10.50
2018-03-31T13:12:09.415Z,10.40
2018-03-31T13:14:37.212Z,10.40
2018-03-31T13:17:04.228Z,10.40
2018-03-31T13:19:32.012Z,10.40
2018-03-31T13:21:59.018Z,10.40
2018-03-31T13:24:26.790Z,10.30
2018-03-31T13:26:53.816Z,10.30
2018-03-31T13:29:21.003Z,10.30
2018-03-31T13:31:48.048Z,10.40
2018-03-31T13:34:15.039Z,10.40
2018-03-31T13:36:42.160Z,10.30
2018-03-31T13:39:09.177Z,10.40
2018-03-31T13:41:36.202Z,10.60
2018-03-31T13:44:03.990Z,10.70
2018-03-31T13:46:30.999Z,10.60
2018-03-31T13:48:58.008Z,10.60
2018-03-31T13:51:25.139Z,10.50
2018-03-31T13:53:52.150Z,10.50
2018-03-31T13:56:19.913Z,10.40
2018-03-31T13:58:47.698Z,10.40
2018-03-31T14:01:14.745Z,10.30
2018-03-31T14:03:41.806Z,10.40
2018-03-31T14:06:08.820Z,10.20
2018-03-31T14:08:36.595Z,10.30
2018-03-31T14:11:03.638Z,10.20
2018-03-31T14:13:30.790Z,10.30
2018-03-31T14:15:57.798Z,10.10
2018-03-31T14:18:24.810Z,10.10
2018-03-31T14:20:51.946Z,10.20
2018-03-31T14:23:18.965Z,10.30
2018-03-31T14:25:46.728Z,10.30
2018-03-31T14:28:14.505Z,10.40
2018-03-31T14:30:41.513Z,10.30
2018-03-31T14:33:09.425Z,10.20
2018-03-31T14:35:36.453Z,10.20
2018-03-31T14:38:03.451Z,10.10
2018-03-31T14:40:30.480Z,10.10
2018-03-31T14:42:57.583Z,10.20
2018-03-31T14:45:25.343Z,10.20
2018-03-31T14:47:53.135Z,10.30
2018-03-31T14:50:20.148Z,10.20
2018-03-31T14:52:47.903Z,10.40
2018-03-31T14:55:15.924Z,10.30
2018-03-31T14:57:42.937Z,10.40
2018-03-31T15:00:09.947Z,10.40
2018-03-31T15:02:36.955Z,10.40
2018-03-31T15:05:03.969Z,10.50
2018-03-31T15:07:30.987Z,10.50
2018-03-31T15:09:58.001Z,10.50
2018-03-31T15:12:25.008Z,10.60
2018-03-31T15:14:52.014Z,10.50
2018-03-31T15:17:19.092Z,10.60
2018-03-31T15:19:46.869Z,10.20
2018-03-31T15:22:13.859Z,10.20
2018-03-31T15:24:40.877Z,10.10
2018-03-31T15:27:07.888Z,10.00
2018-03-31T15:29:35.663Z,10.10
2018-03-31T15:32:02.655Z,10.10
2018-03-31T15:34:29.667Z,10.10
2018-03-31T15:36:56.660Z,9.90
2018-03-31T15:39:23.676Z,9.90
2018-03-31T15:41:50.687Z,9.80
2018-03-31T15:44:17.690Z,9.70
2018-03-31T15:46:44.750Z,9.70
2018-03-31T15:49:12.537Z,9.70
2018-03-31T15:51:39.584Z,9.60
2018-03-31T15:54:06.591Z,9.60
2018-03-31T15:56:33.605Z,9.60
2018-03-31T15:59:00.603Z,9.60
2018-03-31T16:01:28.483Z,9.70
2018-03-31T16:03:55.524Z,9.70
2018-03-31T16:06:23.320Z,9.50
2018-03-31T16:08:50.327Z,9.50
2018-03-31T16:11:18.262Z,9.40
2018-03-31T16:13:45.281Z,9.40
2018-03-31T16:16:12.273Z,9.40
2018-03-31T16:18:40.179Z,9.50
2018-03-31T16:21:07.188Z,9.40
2018-03-31T16:23:34.959Z,9.60
2018-03-31T16:26:02.728Z,9.60
2018-03-31T16:28:29.732Z,9.50
2018-03-31T16:30:56.993Z,9.50
2018-03-31T16:33:23.998Z,9.40
2018-03-31T16:35:51.019Z,9.40
2018-03-31T16:38:18.017Z,9.40
2018-03-31T16:40:45.119Z,9.40
2018-03-31T16:43:12.166Z,9.40
2018-03-31T16:45:39.160Z,9.40
2018-03-31T16:48:06.160Z,9.40
2018-03-31T16:50:33.148Z,9.40
2018-03-31T16:53:00.155Z,9.40
2018-03-31T16:55:27.149Z,9.40
2018-03-31T16:57:55.661Z,9.20
2018-03-31T17:00:22.664Z,9.20
2018-03-31T17:02:49.753Z,9.20
2018-03-31T17:05:16.777Z,9.20
2018-03-31T17:07:44.536Z,9.20
2018-03-31T17:10:12.309Z,9.20
2018-03-31T17:12:40.227Z,9.20
2018-03-31T17:15:07.349Z,9.10
2018-03-31T17:17:34.360Z,9.20
2018-03-31T17:20:02.124Z,9.20
2018-03-31T17:22:30.506Z,9.10
2018-03-31T17:24:58.276Z,9.10
2018-03-31T17:27:26.041Z,9.00
2018-03-31T17:29:53.090Z,9.00
2018-03-31T17:32:20.096Z,9.00
2018-03-31T17:34:47.104Z,8.90
2018-03-31T17:37:14.123Z,8.90
2018-03-31T17:39:41.120Z,8.90
2018-03-31T17:42:08.234Z,8.90
2018-03-31T17:44:35.664Z,8.90
2018-03-31T17:47:03.634Z,8.90
2018-03-31T17:49:31.387Z,8.90
2018-03-31T17:51:59.228Z,8.90
2018-03-31T17:54:26.309Z,8.90
2018-03-31T17:56:53.354Z,8.90
2018-03-31T17:59:21.123Z,8.80
2018-03-31T18:01:48.159Z,8.80
2018-03-31T18:04:15.218Z,8.80
2018-03-31T18:06:42.231Z,8.80
2018-03-31T18:09:09.244Z,8.70
2018-03-31T18:11:36.348Z,8.70
2018-03-31T18:14:03.339Z,8.70
2018-03-31T18:16:30.370Z,8.70
2018-03-31T18:18:57.484Z,8.80
2018-03-31T18:21:24.532Z,8.70
2018-03-31T18:23:51.529Z,8.60
2018-03-31T18:26:18.546Z,8.60
2018-03-31T18:28:45.574Z,8.60
2018-03-31T18:31:12.601Z,8.60
2018-03-31T18:33:40.366Z,8.60
2018-03-31T18:36:08.155Z,8.50
2018-03-31T18:38:35.178Z,8.50
2018-03-31T18:41:02.225Z,8.50
2018-03-31T18:43:29.278Z,8.40
2018-03-31T18:45:56.321Z,8.40
2018-03-31T18:48:23.328Z,8.30
2018-03-31T18:50:50.341Z,8.40
2018-03-31T18:53:17.581Z,8.40
2018-03-31T18:55:44.586Z,8.30
2018-03-31T18:58:12.373Z,8.40
2018-03-31T19:00:39.398Z,8.40
2018-03-31T19:03:07.401Z,8.30
2018-03-31T19:05:34.453Z,8.20
2018-03-31T19:08:01.439Z,8.10
2018-03-31T19:10:28.427Z,8.10
2018-03-31T19:12:55.448Z,8.10
2018-03-31T19:15:23.228Z,8.10
2018-03-31T19:17:50.291Z,8.10
2018-03-31T19:20:17.298Z,8.10
2018-03-31T19:22:45.073Z,8.10
2018-03-31T19:25:18.492Z,8.10
2018-03-31T19:27:45.504Z,8.00
2018-03-31T19:30:13.283Z,8.00
2018-03-31T19:32:40.287Z,7.90
2018-03-31T19:35:07.301Z,7.90
2018-03-31T19:37:35.025Z,7.90
2018-03-31T19:40:02.825Z,8.00
2018-03-31T19:42:29.841Z,7.90
2018-03-31T19:44:56.850Z,8.00
2018-03-31T19:47:23.874Z,8.00
2018-03-31T19:49:50.902Z,8.00
2018-03-31T19:52:17.891Z,8.00
2018-03-31T19:54:44.892Z,8.00
2018-03-31T19:57:11.905Z,8.00
2018-03-31T19:59:39.673Z,8.00
2018-03-31T20:02:07.533Z,8.00
2018-03-31T20:04:34.614Z,7.90
2018-03-31T20:07:01.613Z,7.90
2018-03-31T20:09:29.392Z,7.80
2018-03-31T20:11:56.418Z,7.80
2018-03-31T20:14:24.220Z,7.90
2018-03-31T20:16:51.233Z,7.90
2018-03-31T20:19:18.987Z,8.00
2018-03-31T20:21:45.988Z,8.00
2018-03-31T20:24:12.991Z,8.10
2018-03-31T20:26:40.859Z,8.00
2018-03-31T20:29:08.619Z,7.90
2018-03-31T20:31:36.399Z,7.90
2018-03-31T20:34:03.404Z,7.80
2018-03-31T20:36:31.165Z,7.90
2018-03-31T20:38:58.180Z,7.80
2018-03-31T20:41:25.264Z,7.80
2018-03-31T20:43:52.267Z,7.90
2018-03-31T20:46:19.273Z,7.80
2018-03-31T20:48:46.296Z,7.80
2018-03-31T20:51:13.303Z,7.90
2018-03-31T20:53:40.427Z,7.90
2018-03-31T20:56:07.439Z,7.90
2018-03-31T20:58:34.449Z,8.00
2018-03-31T21:01:01.465Z,8.00
2018-03-31T21:03:28.480Z,8.10
2018-03-31T21:05:56.363Z,8.10
2018-03-31T21:08:23.405Z,8.00
2018-03-31T21:10:50.434Z,8.00
2018-03-31T21:13:18.200Z,7.80
2018-03-31T21:15:45.973Z,7.80
2018-03-31T21:18:13.741Z,8.00
2018-03-31T21:20:40.785Z,7.90
2018-03-31T21:23:08.744Z,7.90
2018-03-31T21:25:36.545Z,7.90
2018-03-31T21:28:03.557Z,7.90
2018-03-31T21:30:31.335Z,7.70
2018-03-31T21:32:58.360Z,7.70
2018-03-31T21:35:26.129Z,7.70
2018-03-31T21:37:53.896Z,7.70
2018-03-31T21:40:20.945Z,7.60
2018-03-31T21:42:47.931Z,7.70
2018-03-31T21:45:14.953Z,7.60
2018-03-31T21:47:41.975Z,7.60
2018-03-31T21:50:09.766Z,7.70
2018-03-31T21:52:36.933Z,7.60
2018-03-31T21:55:03.928Z,7.70
2018-03-31T21:57:31.691Z,7.50
2018-03-31T21:59:59.455Z,7.30
2018-03-31T22:02:27.223Z,7.30
2018-03-31T22:04:54.221Z,7.30
2018-03-31T22:07:21.297Z,7.30
2018-03-31T22:09:49.175Z,7.30
2018-03-31T22:12:16.947Z,7.30
2018-03-31T22:14:49.669Z,7.30
2018-03-31T22:17:16.764Z,7.40
2018-03-31T22:19:44.526Z,7.10
2018-03-31T22:22:12.301Z,7.00
2018-03-31T22:24:39.296Z,7.00
2018-03-31T22:27:06.313Z,7.10
2018-03-31T22:29:33.302Z,7.00
2018-03-31T22:32:00.322Z,7.00
2018-03-31T22:34:27.422Z,7.00
2018-03-31T22:36:54.433Z,6.90
2018-03-31T22:39:21.419Z,6.90
2018-03-31T22:41:48.415Z,6.80
2018-03-31T22:44:15.424Z,6.70
2018-03-31T22:46:42.423Z,6.60
2018-03-31T22:49:10.217Z,6.60
2018-03-31T22:51:37.203Z,6.50
2018-03-31T22:54:04.190Z,6.60
2018-03-31T22:56:32.056Z,6.60
2018-03-31T22:58:59.841Z,6.60
2018-03-31T23:01:26.827Z,6.60
2018-03-31T23:03:53.970Z,6.60
2018-03-31T23:06:21.771Z,6.60
2018-03-31T23:08:49.528Z,6.50
2018-03-31T23:11:17.290Z,6.50
2018-03-31T23:13:45.051Z,6.50
2018-03-31T23:16:12.834Z,6.40
2018-03-31T23:18:39.844Z,6.40
2018-03-31T23:21:06.861Z,6.50
2018-03-31T23:23:33.844Z,6.50
2018-03-31T23:26:00.861Z,6.50
2018-03-31T23:28:27.869Z,6.50
2018-03-31T23:30:54.859Z,6.50
2018-03-31T23:33:21.949Z,6.50
2018-03-31T23:35:48.961Z,6.40
2018-03-31T23:38:16.037Z,6.50
2018-03-31T23:40:43.792Z,6.30
2018-03-31T23:43:11.553Z,6.30
2018-03-31T23:45:39.328Z,6.30
2018-03-31T23:48:06.319Z,6.20
2018-03-31T23:50:33.320Z,6.40
2018-03-31T23:53:00.360Z,6.20
2018-03-31T23:55:27.380Z,6.10
2018-03-31T23:57:54.379Z,6.10
